createdAt,value
2023-04-10T00:00:30.931Z,959.2883
2023-04-10T00:01:34.152Z,959.2745
2023-04-10T00:02:37.533Z,959.2606
2023-04-10T00:03:41.140Z,959.2572
2023-04-10T00:04:44.477Z,959.2505
2023-04-10T00:05:47.675Z,959.2461
2023-04-10T00:06:47.885Z,959.2288
2023-04-10T00:07:51.102Z,959.2233
2023-04-10T00:08:54.471Z,959.2283
2023-04-10T00:09:57.681Z,959.2366
2023-04-10T00:11:00.897Z,959.2311
2023-04-10T00:12:04.107Z,959.2278
2023-04-10T00:13:07.379Z,959.2233
2023-04-10T00:14:10.578Z,959.2117
2023-04-10T00:15:13.800Z,959.2045
2023-04-10T00:16:17.056Z,959.1950
2023-04-10T00:17:20.382Z,959.1984
2023-04-10T00:18:23.593Z,959.1895
2023-04-10T00:19:26.825Z,959.1895
2023-04-10T00:20:30.019Z,959.2017
2023-04-10T00:21:33.239Z,959.2111
2023-04-10T00:22:36.441Z,959.2128
2023-04-10T00:23:39.691Z,959.2061
2023-04-10T00:24:42.919Z,959.1961
2023-04-10T00:25:46.140Z,959.1878
2023-04-10T00:26:49.362Z,959.1866
2023-04-10T00:27:52.607Z,959.1866
2023-04-10T00:28:55.815Z,959.1884
2023-04-10T00:29:59.026Z,959.1861
2023-04-10T00:31:02.266Z,959.1878
2023-04-10T00:32:05.499Z,959.1917
2023-04-10T00:33:08.708Z,959.1800
2023-04-10T00:34:12.101Z,959.1567
2023-04-10T00:35:15.318Z,959.1367
2023-04-10T00:36:18.540Z,959.1222
2023-04-10T00:37:21.771Z,959.1039
2023-04-10T00:38:24.993Z,959.0911
2023-04-10T00:39:28.202Z,959.0933
2023-04-10T00:40:28.412Z,959.1088
2023-04-10T00:41:28.392Z,959.1241
2023-04-10T00:42:31.663Z,959.1372
2023-04-10T00:43:34.882Z,959.1489
2023-04-10T00:44:38.163Z,959.1489
2023-04-10T00:45:41.497Z,959.1428
2023-04-10T00:46:44.738Z,959.1378
2023-04-10T00:47:48.031Z,959.1367
2023-04-10T00:48:51.326Z,959.1367
2023-04-10T00:49:54.604Z,959.1489
2023-04-10T00:50:57.855Z,959.1583
2023-04-10T00:51:58.527Z,959.1629
2023-04-10T00:52:58.473Z,959.1676
2023-04-10T00:54:01.784Z,959.1728
2023-04-10T00:55:05.066Z,959.1878
2023-04-10T00:56:08.324Z,959.1972
2023-04-10T00:57:11.758Z,959.2039
2023-04-10T00:58:14.972Z,959.2122
2023-04-10T00:59:18.259Z,959.2100
2023-04-10T01:00:21.492Z,959.2050
2023-04-10T01:01:21.561Z,959.2012
2023-04-10T01:02:24.919Z,959.1972
2023-04-10T01:03:25.098Z,959.1982
2023-04-10T01:04:25.095Z,959.1971
2023-04-10T01:05:28.423Z,959.1967
2023-04-10T01:06:31.706Z,959.1900
2023-04-10T01:07:34.958Z,959.1939
2023-04-10T01:08:38.240Z,959.1972
2023-04-10T01:09:38.246Z,959.1965
2023-04-10T01:10:41.527Z,959.1922
2023-04-10T01:11:41.517Z,959.1929
2023-04-10T01:12:44.793Z,959.1895
2023-04-10T01:13:44.888Z,959.1841
2023-04-10T01:14:48.139Z,959.1889
2023-04-10T01:15:51.425Z,959.1884
2023-04-10T01:16:54.751Z,959.2028
2023-04-10T01:17:58.003Z,959.2056
2023-04-10T01:19:01.262Z,959.1961
2023-04-10T01:20:04.514Z,959.1844
2023-04-10T01:21:07.770Z,959.1689
2023-04-10T01:22:11.072Z,959.1517
2023-04-10T01:23:14.304Z,959.1361
2023-04-10T01:24:17.599Z,959.1255
2023-04-10T01:25:20.826Z,959.1183
2023-04-10T01:26:24.104Z,959.1194
2023-04-10T01:27:27.372Z,959.1194
2023-04-10T01:28:30.637Z,959.1278
2023-04-10T01:29:33.903Z,959.1311
2023-04-10T01:30:37.250Z,959.1322
2023-04-10T01:31:37.310Z,959.1365
2023-04-10T01:32:40.612Z,959.1289
2023-04-10T01:33:43.878Z,959.1261
2023-04-10T01:34:47.137Z,959.1234
2023-04-10T01:35:50.437Z,959.1072
2023-04-10T01:36:50.563Z,959.1053
2023-04-10T01:37:53.842Z,959.0989
2023-04-10T01:38:57.104Z,959.0994
2023-04-10T01:40:00.379Z,959.1000
2023-04-10T01:41:03.668Z,959.1039
2023-04-10T01:42:06.940Z,959.1000
2023-04-10T01:43:10.232Z,959.0967
2023-04-10T01:44:13.510Z,959.1000
2023-04-10T01:45:16.750Z,959.1044
2023-04-10T01:46:20.010Z,959.1094
2023-04-10T01:47:23.282Z,959.1245
2023-04-10T01:48:26.520Z,959.1322
2023-04-10T01:49:29.788Z,959.1472
2023-04-10T01:50:33.048Z,959.1578
2023-04-10T01:51:36.329Z,959.1616
2023-04-10T01:52:39.625Z,959.1605
2023-04-10T01:53:42.894Z,959.1572
2023-04-10T01:54:46.114Z,959.1506
2023-04-10T01:55:49.396Z,959.1467
2023-04-10T01:56:52.641Z,959.1555
2023-04-10T01:57:55.945Z,959.1589
2023-04-10T01:58:59.401Z,959.1666
2023-04-10T02:00:02.648Z,959.1622
2023-04-10T02:01:05.911Z,959.1589
2023-04-10T02:02:06.045Z,959.1536
2023-04-10T02:03:09.575Z,959.1522
2023-04-10T02:04:09.738Z,959.1365
2023-04-10T02:05:21.625Z,959.1255
2023-04-10T02:06:14.660Z,959.1166
2023-04-10T02:07:17.904Z,959.1028
2023-04-10T02:08:21.225Z,959.0922
2023-04-10T02:09:24.449Z,959.0911
2023-04-10T02:10:27.779Z,959.0994
2023-04-10T02:11:31.044Z,959.1078
2023-04-10T02:12:34.269Z,959.1166
2023-04-10T02:13:37.685Z,959.1139
2023-04-10T02:14:40.933Z,959.1222
2023-04-10T02:15:44.225Z,959.1194
2023-04-10T02:16:44.254Z,959.1041
2023-04-10T02:17:47.545Z,959.0867
2023-04-10T02:18:50.787Z,959.0745
2023-04-10T02:19:54.068Z,959.0689
2023-04-10T02:20:57.300Z,959.0634
2023-04-10T02:22:00.555Z,959.0616
2023-04-10T02:23:04.069Z,959.0700
2023-04-10T02:24:03.868Z,959.0894
2023-04-10T02:25:07.095Z,959.1033
2023-04-10T02:26:10.837Z,959.1050
2023-04-10T02:27:10.553Z,959.1082
2023-04-10T02:28:13.798Z,959.0972
2023-04-10T02:29:17.036Z,959.0811
2023-04-10T02:30:20.274Z,959.0667
2023-04-10T02:31:23.545Z,959.0522
2023-04-10T02:32:26.904Z,959.0439
2023-04-10T02:33:30.140Z,959.0417
2023-04-10T02:34:33.431Z,959.0455
2023-04-10T02:35:37.179Z,959.0505
2023-04-10T02:36:37.205Z,959.0529
2023-04-10T02:37:37.161Z,959.0565
2023-04-10T02:38:37.070Z,959.0618
2023-04-10T02:39:40.366Z,959.0611
2023-04-10T02:40:43.600Z,959.0745
2023-04-10T02:41:46.882Z,959.0817
2023-04-10T02:42:50.118Z,959.0978
2023-04-10T02:43:53.617Z,959.1150
2023-04-10T02:44:53.596Z,959.1306
2023-04-10T02:45:56.872Z,959.1434
2023-04-10T02:47:00.923Z,959.1605
2023-04-10T02:48:00.703Z,959.1876
2023-04-10T02:49:03.943Z,959.2039
2023-04-10T02:50:07.209Z,959.1917
2023-04-10T02:51:10.483Z,959.1816
2023-04-10T02:52:13.711Z,959.1844
2023-04-10T02:53:16.946Z,959.1911
2023-04-10T02:54:17.029Z,959.1900
2023-04-10T02:55:20.300Z,959.1945
2023-04-10T02:56:23.526Z,959.2011
2023-04-10T02:57:26.801Z,959.2061
2023-04-10T02:58:30.050Z,959.2084
2023-04-10T02:59:33.288Z,959.2083
2023-04-10T03:00:36.522Z,959.2156
2023-04-10T03:01:40.075Z,959.2222
2023-04-10T03:02:43.438Z,959.2250
2023-04-10T03:03:43.415Z,959.2318
2023-04-10T03:04:46.758Z,959.2534
2023-04-10T03:05:50.012Z,959.2639
2023-04-10T03:06:53.265Z,959.2772
2023-04-10T03:07:56.497Z,959.2806
2023-04-10T03:08:59.790Z,959.2850
2023-04-10T03:10:03.452Z,959.2856
2023-04-10T03:11:03.182Z,959.2800
2023-04-10T03:12:06.428Z,959.2761
2023-04-10T03:13:09.694Z,959.2711
2023-04-10T03:14:13.060Z,959.2756
2023-04-10T03:15:16.731Z,959.2711
2023-04-10T03:16:16.513Z,959.2682
2023-04-10T03:17:19.742Z,959.2534
2023-04-10T03:18:23.000Z,959.2516
2023-04-10T03:19:26.238Z,959.2322
2023-04-10T03:20:29.997Z,959.2255
2023-04-10T03:21:30.264Z,959.2135
2023-04-10T03:22:33.513Z,959.1900
2023-04-10T03:23:37.133Z,959.1622
2023-04-10T03:24:36.941Z,959.1382
2023-04-10T03:25:40.196Z,959.1216
2023-04-10T03:26:40.388Z,959.1094
2023-04-10T03:27:43.656Z,959.0900
2023-04-10T03:28:46.945Z,959.0806
2023-04-10T03:29:50.200Z,959.0795
2023-04-10T03:30:53.454Z,959.0772
2023-04-10T03:31:56.779Z,959.0945
2023-04-10T03:32:56.690Z,959.1094
2023-04-10T03:34:00.210Z,959.1022
2023-04-10T03:35:03.482Z,959.0950
2023-04-10T03:36:06.745Z,959.0800
2023-04-10T03:37:10.046Z,959.0784
2023-04-10T03:38:13.369Z,959.0756
2023-04-10T03:39:13.433Z,959.0829
2023-04-10T03:40:16.669Z,959.0983
2023-04-10T03:41:19.959Z,959.1133
2023-04-10T03:42:23.241Z,959.1150
2023-04-10T03:43:26.505Z,959.1166
2023-04-10T03:44:29.757Z,959.1078
2023-04-10T03:45:33.056Z,959.1150
2023-04-10T03:46:33.072Z,959.1241
2023-04-10T03:47:36.331Z,959.1100
2023-04-10T03:48:39.574Z,959.1005
2023-04-10T03:49:42.819Z,959.0911
2023-04-10T03:50:46.061Z,959.0817
2023-04-10T03:51:49.327Z,959.0772
2023-04-10T03:52:52.588Z,959.0778
2023-04-10T03:53:56.121Z,959.0867
2023-04-10T03:54:56.065Z,959.0853
2023-04-10T03:55:59.460Z,959.0845
2023-04-10T03:57:03.270Z,959.0839
2023-04-10T03:58:03.029Z,959.0771
2023-04-10T03:59:06.302Z,959.0639
2023-04-10T04:00:09.514Z,959.0505
2023-04-10T04:01:12.763Z,959.0256
2023-04-10T04:02:16.289Z,959.0005
2023-04-10T04:03:19.832Z,958.9761
2023-04-10T04:04:20.174Z,958.9559
2023-04-10T04:05:20.070Z,958.9494
2023-04-10T04:06:23.298Z,958.9478
2023-04-10T04:07:26.574Z,958.9522
2023-04-10T04:08:29.922Z,958.9539
2023-04-10T04:09:33.224Z,958.9656
2023-04-10T04:10:36.443Z,958.9744
2023-04-10T04:11:39.688Z,958.9778
2023-04-10T04:12:42.909Z,958.9894
2023-04-10T04:13:46.169Z,958.9905
2023-04-10T04:14:49.611Z,958.9955
2023-04-10T04:15:52.971Z,959.0061
2023-04-10T04:16:56.262Z,959.0100
2023-04-10T04:17:59.525Z,959.0200
2023-04-10T04:19:02.826Z,959.0150
2023-04-10T04:20:06.107Z,959.0100
2023-04-10T04:21:09.311Z,959.0084
2023-04-10T04:22:12.950Z,959.0005
2023-04-10T04:23:16.167Z,958.9989
2023-04-10T04:24:19.430Z,958.9933
2023-04-10T04:25:22.649Z,958.9922
2023-04-10T04:26:25.921Z,959.0000
2023-04-10T04:27:29.172Z,959.0056
2023-04-10T04:28:32.413Z,959.0028
2023-04-10T04:29:35.922Z,959.0039
2023-04-10T04:30:36.300Z,959.0300
2023-04-10T04:31:36.123Z,959.0558
2023-04-10T04:32:39.400Z,959.0661
2023-04-10T04:33:43.100Z,959.0800
2023-04-10T04:34:42.887Z,959.0829
2023-04-10T04:35:46.200Z,959.0800
2023-04-10T04:36:49.429Z,959.0889
2023-04-10T04:37:52.732Z,959.0861
2023-04-10T04:38:55.959Z,959.0978
2023-04-10T04:39:59.226Z,959.1000
2023-04-10T04:41:02.467Z,959.1016
2023-04-10T04:42:03.761Z,959.1141
2023-04-10T04:43:07.011Z,959.1194
2023-04-10T04:44:10.680Z,959.1166
2023-04-10T04:45:10.542Z,959.1176
2023-04-10T04:46:13.841Z,959.1222
2023-04-10T04:47:17.125Z,959.1367
2023-04-10T04:48:20.383Z,959.1517
2023-04-10T04:49:24.054Z,959.1611
2023-04-10T04:50:24.870Z,959.1835
2023-04-10T04:51:24.689Z,959.1976
2023-04-10T04:52:27.949Z,959.2078
2023-04-10T04:53:31.188Z,959.2039
2023-04-10T04:54:34.432Z,959.2061
2023-04-10T04:55:37.787Z,959.2139
2023-04-10T04:56:40.994Z,959.2217
2023-04-10T04:57:44.274Z,959.2283
2023-04-10T04:58:47.496Z,959.2378
2023-04-10T04:59:50.747Z,959.2545
2023-04-10T05:00:54.046Z,959.2734
2023-04-10T05:01:58.306Z,959.2978
2023-04-10T05:02:58.225Z,959.3188
2023-04-10T05:04:01.570Z,959.3300
2023-04-10T05:05:04.869Z,959.3284
2023-04-10T05:06:08.699Z,959.3272
2023-04-10T05:07:08.464Z,959.3094
2023-04-10T05:08:11.695Z,959.2944
2023-04-10T05:09:14.967Z,959.2734
2023-04-10T05:10:18.195Z,959.2572
2023-04-10T05:11:21.590Z,959.2478
2023-04-10T05:12:23.449Z,959.2425
2023-04-10T05:13:26.709Z,959.2622
2023-04-10T05:14:29.980Z,959.2728
2023-04-10T05:15:33.281Z,959.2883
2023-04-10T05:16:36.772Z,959.2883
2023-04-10T05:17:36.575Z,959.2859
2023-04-10T05:18:39.802Z,959.2856
2023-04-10T05:19:41.385Z,959.2800
2023-04-10T05:20:44.657Z,959.2678
2023-04-10T05:21:49.258Z,959.2539
2023-04-10T05:22:49.124Z,959.2447
2023-04-10T05:23:52.351Z,959.2350
2023-04-10T05:24:55.855Z,959.2300
2023-04-10T05:25:59.115Z,959.2283
2023-04-10T05:27:02.439Z,959.2272
2023-04-10T05:28:05.623Z,959.2322
2023-04-10T05:29:08.938Z,959.2361
2023-04-10T05:30:12.164Z,959.2333
2023-04-10T05:31:15.466Z,959.2394
2023-04-10T05:32:18.734Z,959.2333
2023-04-10T05:33:21.992Z,959.2328
2023-04-10T05:34:25.216Z,959.2355
2023-04-10T05:35:28.494Z,959.2495
2023-04-10T05:36:31.725Z,959.2545
2023-04-10T05:37:34.971Z,959.2700
2023-04-10T05:38:38.223Z,959.2739
2023-04-10T05:39:38.298Z,959.2776
2023-04-10T05:40:41.497Z,959.2756
2023-04-10T05:41:44.752Z,959.2761
2023-04-10T05:42:47.995Z,959.2667
2023-04-10T05:43:51.259Z,959.2528
2023-04-10T05:44:54.485Z,959.2444
2023-04-10T05:45:57.829Z,959.2378
2023-04-10T05:47:01.076Z,959.2450
2023-04-10T05:48:04.690Z,959.2606
2023-04-10T05:49:04.466Z,959.2676
2023-04-10T05:50:07.725Z,959.2811
2023-04-10T05:51:11.004Z,959.2833
2023-04-10T05:52:14.224Z,959.2911
2023-04-10T05:53:17.481Z,959.2905
2023-04-10T05:54:20.738Z,959.2911
2023-04-10T05:55:23.969Z,959.3044
2023-04-10T05:56:27.257Z,959.3161
2023-04-10T05:57:30.473Z,959.3150
2023-04-10T05:58:33.742Z,959.2878
2023-04-10T05:59:36.980Z,959.2767
2023-04-10T06:00:40.243Z,959.2872
2023-04-10T06:01:43.485Z,959.2900
2023-04-10T06:02:46.941Z,959.2878
2023-04-10T06:03:46.966Z,959.2941
2023-04-10T06:04:46.916Z,959.3011
2023-04-10T06:05:50.158Z,959.3111
2023-04-10T06:06:53.412Z,959.3094
2023-04-10T06:07:58.352Z,959.3256
2023-04-10T06:08:58.438Z,959.3353
2023-04-10T06:10:01.656Z,959.3506
2023-04-10T06:11:04.911Z,959.3683
2023-04-10T06:12:08.187Z,959.3956
2023-04-10T06:13:11.465Z,959.4133
2023-04-10T06:14:14.710Z,959.4239
2023-04-10T06:15:17.952Z,959.4278
2023-04-10T06:16:21.220Z,959.4266
2023-04-10T06:17:24.484Z,959.4384
2023-04-10T06:18:27.744Z,959.4372
2023-04-10T06:19:31.002Z,959.4378
2023-04-10T06:20:34.272Z,959.4372
2023-04-10T06:21:37.540Z,959.4305
2023-04-10T06:22:40.839Z,959.4294
2023-04-10T06:23:44.067Z,959.4311
2023-04-10T06:24:47.306Z,959.4434
2023-04-10T06:25:50.562Z,959.4600
2023-04-10T06:26:53.797Z,959.4728
2023-04-10T06:27:57.061Z,959.4733
2023-04-10T06:29:00.352Z,959.4755
2023-04-10T06:30:03.667Z,959.4883
2023-04-10T06:31:06.882Z,959.4800
2023-04-10T06:32:10.123Z,959.4689
2023-04-10T06:33:13.381Z,959.4650
2023-04-10T06:34:16.639Z,959.4556
2023-04-10T06:35:19.875Z,959.4461
2023-04-10T06:36:23.173Z,959.4461
2023-04-10T06:37:26.515Z,959.4489
2023-04-10T06:38:29.840Z,959.4561
2023-04-10T06:39:33.087Z,959.4656
2023-04-10T06:40:36.417Z,959.4794
2023-04-10T06:41:39.624Z,959.4872
2023-04-10T06:42:42.858Z,959.4839
2023-04-10T06:43:46.132Z,959.4711
2023-04-10T06:44:49.423Z,959.4622
2023-04-10T06:45:52.762Z,959.4506
2023-04-10T06:46:55.998Z,959.4445
2023-04-10T06:47:59.427Z,959.4266
2023-04-10T06:49:03.373Z,959.4439
2023-04-10T06:50:03.185Z,959.4565
2023-04-10T06:51:06.480Z,959.4456
2023-04-10T06:52:09.756Z,959.4572
2023-04-10T06:53:13.000Z,959.4584
2023-04-10T06:54:16.285Z,959.4683
2023-04-10T06:55:19.557Z,959.4534
2023-04-10T06:56:22.990Z,959.4378
2023-04-10T06:57:26.248Z,959.4233
2023-04-10T06:58:29.477Z,959.4078
2023-04-10T06:59:32.766Z,959.3694
2023-04-10T07:00:36.002Z,959.3489
2023-04-10T07:01:39.287Z,959.3395
2023-04-10T07:02:42.624Z,959.3444
2023-04-10T07:03:46.007Z,959.3250
2023-04-10T07:04:50.411Z,959.3172
2023-04-10T07:05:50.281Z,959.3182
2023-04-10T07:06:53.543Z,959.2944
2023-04-10T07:07:56.798Z,959.2983
2023-04-10T07:09:00.078Z,959.3150
2023-04-10T07:10:03.336Z,959.3083
2023-04-10T07:11:07.025Z,959.2913
2023-04-10T07:12:07.076Z,959.3011
2023-04-10T07:13:07.873Z,959.3141
2023-04-10T07:14:08.076Z,959.3359
2023-04-10T07:15:08.360Z,959.3482
2023-04-10T07:16:08.182Z,959.3688
2023-04-10T07:17:11.418Z,959.3917
2023-04-10T07:18:11.714Z,959.3953
2023-04-10T07:19:14.961Z,959.4122
2023-04-10T07:20:18.466Z,959.4239
2023-04-10T07:21:21.704Z,959.4078
2023-04-10T07:22:24.992Z,959.4161
2023-04-10T07:23:28.494Z,959.4144
2023-04-10T07:24:28.294Z,959.4012
2023-04-10T07:25:28.402Z,959.3859
2023-04-10T07:26:31.687Z,959.3772
2023-04-10T07:27:34.991Z,959.3716
2023-04-10T07:28:38.293Z,959.3755
2023-04-10T07:29:41.809Z,959.3806
2023-04-10T07:30:41.651Z,959.3671
2023-04-10T07:31:45.002Z,959.3566
2023-04-10T07:32:45.354Z,959.3600
2023-04-10T07:33:45.230Z,959.3323
2023-04-10T07:34:48.500Z,959.3211
2023-04-10T07:35:51.796Z,959.3339
2023-04-10T07:36:55.074Z,959.3517
2023-04-10T07:37:55.197Z,959.3600
2023-04-10T07:38:58.534Z,959.3683
2023-04-10T07:40:01.788Z,959.3505
2023-04-10T07:41:05.082Z,959.3694
2023-04-10T07:42:08.509Z,959.3784
2023-04-10T07:43:11.788Z,959.3867
2023-04-10T07:44:15.048Z,959.3867
2023-04-10T07:45:15.116Z,959.3941
2023-04-10T07:46:18.904Z,959.3928
2023-04-10T07:47:18.741Z,959.3788
2023-04-10T07:48:22.037Z,959.3761
2023-04-10T07:49:25.366Z,959.3755
2023-04-10T07:50:28.638Z,959.3939
2023-04-10T07:51:31.970Z,959.4044
2023-04-10T07:52:35.247Z,959.4050
2023-04-10T07:53:35.290Z,959.4147
2023-04-10T07:54:38.609Z,959.4183
2023-04-10T07:55:39.560Z,959.4294
2023-04-10T07:56:39.507Z,959.4341
2023-04-10T07:57:43.049Z,959.4217
2023-04-10T07:58:42.866Z,959.4106
2023-04-10T07:59:46.146Z,959.4033
2023-04-10T08:00:46.771Z,959.4041
2023-04-10T08:01:50.133Z,959.4183
2023-04-10T08:02:50.342Z,959.4158
2023-04-10T08:03:50.415Z,959.3929
2023-04-10T08:04:50.492Z,959.3976
2023-04-10T08:05:50.428Z,959.4147
2023-04-10T08:06:53.697Z,959.4261
2023-04-10T08:07:57.125Z,959.4294
2023-04-10T08:09:00.447Z,959.4467
2023-04-10T08:10:03.798Z,959.4722
2023-04-10T08:11:07.052Z,959.4739
2023-04-10T08:12:10.389Z,959.4744
2023-04-10T08:13:10.408Z,959.4677
2023-04-10T08:14:13.765Z,959.4511
2023-04-10T08:15:14.760Z,959.4431
2023-04-10T08:16:18.120Z,959.4328
2023-04-10T08:17:21.495Z,959.4350
2023-04-10T08:18:22.312Z,959.4418
2023-04-10T08:19:25.666Z,959.4305
2023-04-10T08:20:28.998Z,959.4017
2023-04-10T08:21:32.420Z,959.3939
2023-04-10T08:22:35.684Z,959.3861
2023-04-10T08:23:38.979Z,959.3734
2023-04-10T08:24:42.299Z,959.3700
2023-04-10T08:25:45.593Z,959.3734
2023-04-10T08:26:49.562Z,959.3533
2023-04-10T08:27:49.456Z,959.3494
2023-04-10T08:28:53.047Z,959.3739
2023-04-10T08:29:53.118Z,959.3871
2023-04-10T08:30:56.498Z,959.3911
2023-04-10T08:31:59.804Z,959.3755
2023-04-10T08:33:03.203Z,959.3605
2023-04-10T08:34:06.533Z,959.3544
2023-04-10T08:35:09.934Z,959.3544
2023-04-10T08:36:10.044Z,959.3430
2023-04-10T08:37:13.360Z,959.3511
2023-04-10T08:38:16.759Z,959.3555
2023-04-10T08:39:20.059Z,959.3683
2023-04-10T08:40:23.409Z,959.3834
2023-04-10T08:41:23.639Z,959.3988
2023-04-10T08:43:29.482Z,959.4194
2023-04-10T08:43:29.482Z,959.4337
2023-04-10T08:44:32.771Z,959.4372
2023-04-10T08:45:36.262Z,959.4583
2023-04-10T08:46:39.794Z,959.4683
2023-04-10T08:47:39.749Z,959.4776
2023-04-10T08:48:43.029Z,959.4844
2023-04-10T08:49:46.387Z,959.5061
2023-04-10T08:50:49.717Z,959.4816
2023-04-10T08:51:53.240Z,959.4850
2023-04-10T08:52:56.570Z,959.4744
2023-04-10T08:53:59.929Z,959.4489
2023-04-10T08:55:03.217Z,959.4500
2023-04-10T08:56:06.569Z,959.4589
2023-04-10T08:57:11.054Z,959.4333
2023-04-10T08:58:10.992Z,959.4147
2023-04-10T08:59:14.299Z,959.3928
2023-04-10T09:01:19.823Z,959.3444
2023-04-10T09:02:23.152Z,959.3395
2023-04-10T09:03:26.605Z,959.3300
2023-04-10T09:04:26.584Z,959.3053
2023-04-10T09:05:29.943Z,959.2966
2023-04-10T09:06:33.300Z,959.2850
2023-04-10T09:07:36.607Z,959.2734
2023-04-10T09:08:39.961Z,959.2684
2023-04-10T09:09:43.264Z,959.2578
2023-04-10T09:10:46.582Z,959.2556
2023-04-10T09:11:49.994Z,959.2561
2023-04-10T09:12:53.274Z,959.2684
2023-04-10T09:13:56.725Z,959.2961
2023-04-10T09:14:56.635Z,959.3147
2023-04-10T09:15:56.722Z,959.3318
2023-04-10T09:17:00.055Z,959.3145
2023-04-10T09:18:03.489Z,959.3189
2023-04-10T09:19:05.721Z,959.3082
2023-04-10T09:20:03.563Z,959.2863
2023-04-10T09:21:06.878Z,959.2428
2023-04-10T09:22:10.233Z,959.2366
2023-04-10T09:23:13.535Z,959.2172
2023-04-10T09:24:13.633Z,959.2229
2023-04-10T09:25:16.990Z,959.2194
2023-04-10T09:26:17.107Z,959.2018
2023-04-10T09:27:20.505Z,959.1961
2023-04-10T09:28:23.792Z,959.1972
2023-04-10T09:29:27.096Z,959.1678
2023-04-10T09:30:30.404Z,959.1650
2023-04-10T09:31:33.726Z,959.1644
2023-04-10T09:32:37.061Z,959.1633
2023-04-10T09:33:40.362Z,959.1511
2023-04-10T09:34:43.690Z,959.1434
2023-04-10T09:35:47.002Z,959.1617
2023-04-10T09:36:50.366Z,959.1828
2023-04-10T09:37:53.705Z,959.1950
2023-04-10T09:38:57.044Z,959.1906
2023-04-10T09:40:00.418Z,959.1934
2023-04-10T09:41:03.725Z,959.1911
2023-04-10T09:42:07.044Z,959.1733
2023-04-10T09:43:10.337Z,959.1644
2023-04-10T09:44:13.700Z,959.1622
2023-04-10T09:45:17.014Z,959.1711
2023-04-10T09:46:20.392Z,959.1317
2023-04-10T09:47:23.758Z,959.1266
2023-04-10T09:48:27.140Z,959.1055
2023-04-10T09:49:30.516Z,959.0917
2023-04-10T09:50:36.314Z,959.0756
2023-04-10T09:51:34.291Z,959.0500
2023-04-10T09:52:37.565Z,959.0250
2023-04-10T09:53:37.664Z,959.0212
2023-04-10T09:54:40.967Z,959.0050
2023-04-10T09:55:44.278Z,959.0089
2023-04-10T09:56:47.589Z,959.0206
2023-04-10T09:57:50.943Z,959.0172
2023-04-10T09:58:54.414Z,958.9883
2023-04-10T09:59:54.332Z,958.9717
2023-04-10T10:00:57.687Z,958.9472
2023-04-10T10:02:01.099Z,958.9350
2023-04-10T10:03:04.698Z,958.9322
2023-04-10T10:04:04.869Z,958.8959
2023-04-10T10:05:08.268Z,958.8600
2023-04-10T10:06:08.530Z,958.8171
2023-04-10T10:07:11.871Z,958.7983
2023-04-10T10:08:15.176Z,958.7700
2023-04-10T10:09:19.498Z,958.7489
2023-04-10T10:10:19.353Z,958.7394
2023-04-10T10:11:22.624Z,958.7316
2023-04-10T10:12:25.932Z,958.6895
2023-04-10T10:13:29.462Z,958.6911
2023-04-10T10:14:32.809Z,958.6855
2023-04-10T10:15:36.126Z,958.6700
2023-04-10T10:16:39.496Z,958.6600
2023-04-10T10:17:42.778Z,958.6528
2023-04-10T10:18:46.059Z,958.6356
2023-04-10T10:19:49.377Z,958.6216
2023-04-10T10:20:52.656Z,958.5850
2023-04-10T10:21:52.672Z,958.5618
2023-04-10T10:22:55.965Z,958.5544
2023-04-10T10:23:56.016Z,958.5400
2023-04-10T10:24:59.301Z,958.5261
2023-04-10T10:26:03.971Z,958.5306
2023-04-10T10:27:03.795Z,958.5171
2023-04-10T10:28:07.091Z,958.4984
2023-04-10T10:29:10.370Z,958.4811
2023-04-10T10:30:28.321Z,958.4939
2023-04-10T10:31:15.948Z,958.4819
2023-04-10T10:32:19.316Z,958.4789
2023-04-10T10:33:22.610Z,958.4794
2023-04-10T10:34:25.929Z,958.4656
2023-04-10T10:35:30.108Z,958.4461
2023-04-10T10:36:30.035Z,958.4412
2023-04-10T10:37:33.307Z,958.4289
2023-04-10T10:38:36.905Z,958.4017
2023-04-10T10:39:40.190Z,958.3928
2023-04-10T10:40:43.529Z,958.3822
2023-04-10T10:41:43.570Z,958.3635
2023-04-10T10:42:46.916Z,958.3350
2023-04-10T10:43:50.160Z,958.3234
2023-04-10T10:44:53.472Z,958.3150
2023-04-10T10:45:56.809Z,958.2933
2023-04-10T10:47:00.138Z,958.2783
2023-04-10T10:48:03.539Z,958.2650
2023-04-10T10:49:03.534Z,958.2535
2023-04-10T10:50:06.822Z,958.2472
2023-04-10T10:51:10.153Z,958.2328
2023-04-10T10:52:13.534Z,958.2172
2023-04-10T10:53:16.845Z,958.1972
2023-04-10T10:54:20.157Z,958.1755
2023-04-10T10:55:23.490Z,958.1650
2023-04-10T10:56:26.823Z,958.1322
2023-04-10T10:57:30.127Z,958.1072
2023-04-10T10:58:33.470Z,958.0878
2023-04-10T10:59:36.790Z,958.0628
2023-04-10T11:00:40.073Z,958.0478
2023-04-10T11:01:43.530Z,958.0628
2023-04-10T11:02:43.481Z,958.0800
2023-04-10T11:03:43.473Z,958.0859
2023-04-10T11:04:46.905Z,958.1061
2023-04-10T11:05:50.241Z,958.1039
2023-04-10T11:06:53.577Z,958.0967
2023-04-10T11:07:56.900Z,958.0856
2023-04-10T11:08:57.311Z,958.0865
2023-04-10T11:09:57.313Z,958.0600
2023-04-10T11:11:00.588Z,958.0428
2023-04-10T11:12:04.138Z,958.0339
2023-04-10T11:13:03.924Z,958.0306
2023-04-10T11:14:07.261Z,958.0222
2023-04-10T11:15:10.570Z,958.0317
2023-04-10T11:16:13.936Z,958.0428
2023-04-10T11:17:17.259Z,958.0333
2023-04-10T11:18:20.548Z,958.0217
2023-04-10T11:19:24.295Z,958.0189
2023-04-10T11:20:24.297Z,958.0259
2023-04-10T11:21:27.609Z,958.0367
2023-04-10T11:22:30.960Z,958.0500
2023-04-10T11:23:34.254Z,958.0339
2023-04-10T11:24:37.574Z,958.0089
2023-04-10T11:25:40.877Z,957.9894
2023-04-10T11:26:44.379Z,957.9578
2023-04-10T11:27:47.774Z,957.9622
2023-04-10T11:28:51.289Z,957.9700
2023-04-10T11:29:54.579Z,957.9572
2023-04-10T11:30:57.884Z,957.9445
2023-04-10T11:32:01.270Z,957.9400
2023-04-10T11:33:01.297Z,957.9036
2023-04-10T11:34:02.202Z,957.8867
2023-04-10T11:35:05.725Z,957.8784
2023-04-10T11:36:05.569Z,957.8706
2023-04-10T11:37:05.601Z,957.8771
2023-04-10T11:38:08.941Z,957.8683
2023-04-10T11:39:12.348Z,957.8589
2023-04-10T11:40:15.662Z,957.8500
2023-04-10T11:41:19.092Z,957.8622
2023-04-10T11:42:22.369Z,957.8461
2023-04-10T11:43:25.677Z,957.8511
2023-04-10T11:44:29.151Z,957.8489
2023-04-10T11:45:32.444Z,957.8528
2023-04-10T11:46:35.725Z,957.8372
2023-04-10T11:47:39.112Z,957.8361
2023-04-10T11:48:42.405Z,957.8384
2023-04-10T11:49:45.742Z,957.8189
2023-04-10T11:50:49.019Z,957.7966
2023-04-10T11:51:52.334Z,957.7844
2023-04-10T11:52:56.576Z,957.7722
2023-04-10T11:53:56.503Z,957.7812
2023-04-10T11:54:59.806Z,957.7734
2023-04-10T11:56:03.119Z,957.7795
2023-04-10T11:57:06.411Z,957.7472
2023-04-10T11:58:09.714Z,957.7622
2023-04-10T11:59:13.042Z,957.7439
2023-04-10T12:00:16.360Z,957.7106
2023-04-10T12:01:19.750Z,957.7000
2023-04-10T12:02:23.118Z,957.6839
2023-04-10T12:03:26.621Z,957.6450
2023-04-10T12:04:26.708Z,957.6259
2023-04-10T12:05:26.603Z,957.6171
2023-04-10T12:06:29.873Z,957.6128
2023-04-10T12:07:33.219Z,957.6261
2023-04-10T12:08:36.478Z,957.6278
2023-04-10T12:09:38.039Z,957.6276
2023-04-10T12:10:41.308Z,957.6328
2023-04-10T12:11:41.371Z,957.6282
2023-04-10T12:12:44.652Z,957.6322
2023-04-10T12:13:47.950Z,957.6183
2023-04-10T12:14:47.975Z,957.6188
2023-04-10T12:15:51.296Z,957.5933
2023-04-10T12:16:51.319Z,957.5606
2023-04-10T12:17:54.660Z,957.5455